sensor_id;sensor_type;location;lat;lon;timestamp;pressure;altitude;pressure_sealevel;temperature;humidity
5755;BME280;2902;42.130;24.732;2023-07-20T00:02:26;99018.16;;;27.52;55.37
5755;BME280;2902;42.130;24.732;2023-07-20T00:04:52;99020.72;;;27.48;54.67
5755;BME280;2902;42.130;24.732;2023-07-20T00:07:19;99045.06;;;27.36;54.53
5755;BME280;2902;42.130;24.732;2023-07-20T00:09:47;99040.13;;;27.47;54.05
5755;BME280;2902;42.130;24.732;2023-07-20T00:12:14;99048.75;;;27.32;54.40
5755;BME280;2902;42.130;24.732;2023-07-20T00:14:41;99041.06;;;27.34;54.46
5755;BME280;2902;42.130;24.732;2023-07-20T00:17:07;99044.53;;;27.65;54.82
5755;BME280;2902;42.130;24.732;2023-07-20T00:19:34;99033.03;;;27.93;52.52
5755;BME280;2902;42.130;24.732;2023-07-20T00:22:01;99018.72;;;28.13;52.31
5755;BME280;2902;42.130;24.732;2023-07-20T00:24:30;99001.88;;;28.28;50.92
5755;BME280;2902;42.130;24.732;2023-07-20T00:26:58;98992.38;;;28.43;50.37
5755;BME280;2902;42.130;24.732;2023-07-20T00:29:26;98974.38;;;28.25;51.28
5755;BME280;2902;42.130;24.732;2023-07-20T00:31:52;98962.00;;;28.10;51.17
5755;BME280;2902;42.130;24.732;2023-07-20T00:34:19;98964.13;;;28.05;50.94
5755;BME280;2902;42.130;24.732;2023-07-20T00:36:46;98962.66;;;27.99;50.73
5755;BME280;2902;42.130;24.732;2023-07-20T00:39:14;98959.63;;;27.92;50.15
5755;BME280;2902;42.130;24.732;2023-07-20T00:41:41;98942.28;;;27.88;50.26
5755;BME280;2902;42.130;24.732;2023-07-20T00:44:09;98937.91;;;28.04;49.50
5755;BME280;2902;42.130;24.732;2023-07-20T00:46:35;98930.66;;;28.25;48.91
5755;BME280;2902;42.130;24.732;2023-07-20T00:49:02;98921.00;;;28.36;48.49
5755;BME280;2902;42.130;24.732;2023-07-20T00:51:29;98923.09;;;28.30;49.08
5755;BME280;2902;42.130;24.732;2023-07-20T00:53:56;98932.88;;;28.40;48.56
5755;BME280;2902;42.130;24.732;2023-07-20T00:56:23;98940.09;;;28.61;48.35
5755;BME280;2902;42.130;24.732;2023-07-20T00:58:49;98944.84;;;28.81;48.86
5755;BME280;2902;42.130;24.732;2023-07-20T01:01:18;98936.88;;;28.97;47.57
5755;BME280;2902;42.130;24.732;2023-07-20T01:03:45;98945.88;;;29.06;46.71
5755;BME280;2902;42.130;24.732;2023-07-20T01:06:22;98947.94;;;29.09;46.37
5755;BME280;2902;42.130;24.732;2023-07-20T01:09:00;98945.97;;;29.18;46.39
5755;BME280;2902;42.130;24.732;2023-07-20T01:11:36;98940.03;;;29.16;45.90
5755;BME280;2902;42.130;24.732;2023-07-20T01:14:04;98940.28;;;29.23;46.06
5755;BME280;2902;42.130;24.732;2023-07-20T01:16:34;98935.31;;;29.25;46.40
5755;BME280;2902;42.130;24.732;2023-07-20T01:19:00;98921.28;;;29.27;46.62
5755;BME280;2902;42.130;24.732;2023-07-20T01:21:38;98915.81;;;29.27;46.14
5755;BME280;2902;42.130;24.732;2023-07-20T01:24:45;98911.28;;;29.31;46.65
5755;BME280;2902;42.130;24.732;2023-07-20T01:30:51;98900.06;;;29.23;47.05
5755;BME280;2902;42.130;24.732;2023-07-20T01:33:22;98901.84;;;29.19;46.37
5755;BME280;2902;42.130;24.732;2023-07-20T01:35:53;98897.19;;;29.20;47.25
5755;BME280;2902;42.130;24.732;2023-07-20T01:38:21;98897.25;;;29.11;46.67
5755;BME280;2902;42.130;24.732;2023-07-20T01:40:49;98898.59;;;28.97;47.16
5755;BME280;2902;42.130;24.732;2023-07-20T01:43:17;98895.34;;;29.03;47.65
5755;BME280;2902;42.130;24.732;2023-07-20T01:45:44;98899.56;;;29.01;46.71
5755;BME280;2902;42.130;24.732;2023-07-20T01:48:10;98896.81;;;29.01;47.38
5755;BME280;2902;42.130;24.732;2023-07-20T01:50:39;98897.75;;;29.05;47.61
5755;BME280;2902;42.130;24.732;2023-07-20T01:53:05;98900.63;;;29.08;47.20
5755;BME280;2902;42.130;24.732;2023-07-20T01:55:32;98894.03;;;29.09;47.44
5755;BME280;2902;42.130;24.732;2023-07-20T01:57:59;98886.28;;;29.11;47.73
5755;BME280;2902;42.130;24.732;2023-07-20T02:00:27;98896.25;;;29.16;47.36
5755;BME280;2902;42.130;24.732;2023-07-20T02:02:53;98897.84;;;29.17;47.64
5755;BME280;2902;42.130;24.732;2023-07-20T02:05:20;98912.00;;;29.19;47.86
5755;BME280;2902;42.130;24.732;2023-07-20T02:07:48;98909.09;;;29.24;48.17
5755;BME280;2902;42.130;24.732;2023-07-20T02:10:15;98912.28;;;29.26;48.10
5755;BME280;2902;42.130;24.732;2023-07-20T02:12:42;98911.13;;;29.27;47.40
5755;BME280;2902;42.130;24.732;2023-07-20T02:15:10;98905.66;;;29.27;47.81
5755;BME280;2902;42.130;24.732;2023-07-20T02:17:38;98913.88;;;29.27;47.69
5755;BME280;2902;42.130;24.732;2023-07-20T02:20:07;98906.69;;;29.23;47.73
5755;BME280;2902;42.130;24.732;2023-07-20T02:22:35;98909.75;;;29.21;47.89
5755;BME280;2902;42.130;24.732;2023-07-20T02:25:03;98912.00;;;29.19;47.63
5755;BME280;2902;42.130;24.732;2023-07-20T02:27:30;98906.50;;;29.19;47.48
5755;BME280;2902;42.130;24.732;2023-07-20T02:29:57;98905.06;;;29.22;48.10
5755;BME280;2902;42.130;24.732;2023-07-20T02:32:24;98910.56;;;29.22;47.81
5755;BME280;2902;42.130;24.732;2023-07-20T02:34:51;98915.41;;;29.16;47.93
5755;BME280;2902;42.130;24.732;2023-07-20T02:37:18;98909.31;;;29.10;46.78
5755;BME280;2902;42.130;24.732;2023-07-20T02:39:44;98907.56;;;29.06;47.22
5755;BME280;2902;42.130;24.732;2023-07-20T02:42:13;98905.16;;;29.04;47.23
5755;BME280;2902;42.130;24.732;2023-07-20T02:44:40;98907.09;;;29.04;46.89
5755;BME280;2902;42.130;24.732;2023-07-20T02:47:07;98900.50;;;29.05;47.28
5755;BME280;2902;42.130;24.732;2023-07-20T02:49:34;98904.38;;;29.04;47.65
5755;BME280;2902;42.130;24.732;2023-07-20T02:52:01;98910.31;;;29.06;47.94
5755;BME280;2902;42.130;24.732;2023-07-20T02:54:28;98912.84;;;29.11;48.38
5755;BME280;2902;42.130;24.732;2023-07-20T02:56:56;98902.25;;;29.09;48.64
5755;BME280;2902;42.130;24.732;2023-07-20T02:59:24;98902.25;;;29.09;48.04
5755;BME280;2902;42.130;24.732;2023-07-20T03:01:50;98902.72;;;29.11;48.45
5755;BME280;2902;42.130;24.732;2023-07-20T03:04:17;98898.22;;;29.07;48.83
5755;BME280;2902;42.130;24.732;2023-07-20T03:06:44;98895.03;;;29.05;48.89
5755;BME280;2902;42.130;24.732;2023-07-20T03:09:10;98895.34;;;29.03;48.38
5755;BME280;2902;42.130;24.732;2023-07-20T03:11:37;98889.09;;;28.94;48.96
5755;BME280;2902;42.130;24.732;2023-07-20T03:14:04;98896.38;;;28.90;48.85
5755;BME280;2902;42.130;24.732;2023-07-20T03:16:32;98895.63;;;28.81;48.51
5755;BME280;2902;42.130;24.732;2023-07-20T03:18:59;98891.22;;;28.89;49.67
5755;BME280;2902;42.130;24.732;2023-07-20T03:21:26;98891.97;;;28.98;49.29
5755;BME280;2902;42.130;24.732;2023-07-20T03:23:52;98890.88;;;28.99;49.03
5755;BME280;2902;42.130;24.732;2023-07-20T03:26:19;98887.03;;;29.00;48.84
5755;BME280;2902;42.130;24.732;2023-07-20T03:28:46;98898.09;;;29.03;49.37
5755;BME280;2902;42.130;24.732;2023-07-20T03:31:13;98895.97;;;29.09;49.20
5755;BME280;2902;42.130;24.732;2023-07-20T03:33:42;98888.38;;;29.14;49.02
5755;BME280;2902;42.130;24.732;2023-07-20T03:36:09;98887.56;;;29.14;48.98
5755;BME280;2902;42.130;24.732;2023-07-20T03:38:36;98882.56;;;29.16;48.82
5755;BME280;2902;42.130;24.732;2023-07-20T03:41:03;98871.81;;;29.11;49.75
5755;BME280;2902;42.130;24.732;2023-07-20T03:43:29;98871.16;;;29.14;49.64
5755;BME280;2902;42.130;24.732;2023-07-20T03:45:56;98874.81;;;29.18;49.32
5755;BME280;2902;42.130;24.732;2023-07-20T03:48:24;98874.63;;;29.23;49.88
5755;BME280;2902;42.130;24.732;2023-07-20T03:50:53;98868.91;;;29.37;49.87
5755;BME280;2902;42.130;24.732;2023-07-20T03:53:20;98866.34;;;29.52;49.06
5755;BME280;2902;42.130;24.732;2023-07-20T03:55:48;98875.59;;;29.68;48.96
5755;BME280;2902;42.130;24.732;2023-07-20T03:58:15;98877.50;;;29.88;48.22
5755;BME280;2902;42.130;24.732;2023-07-20T04:00:45;98878.47;;;30.04;48.09
5755;BME280;2902;42.130;24.732;2023-07-20T04:03:12;98876.59;;;30.17;47.21
5755;BME280;2902;42.130;24.732;2023-07-20T04:05:38;98884.97;;;30.32;46.88
5755;BME280;2902;42.130;24.732;2023-07-20T04:08:07;98883.41;;;30.43;45.83
5755;BME280;2902;42.130;24.732;2023-07-20T04:10:33;98891.28;;;30.57;46.00
5755;BME280;2902;42.130;24.732;2023-07-20T04:13:00;98894.97;;;30.85;45.82
5755;BME280;2902;42.130;24.732;2023-07-20T04:15:27;98894.84;;;31.41;46.36
5755;BME280;2902;42.130;24.732;2023-07-20T04:17:54;98890.31;;;32.00;43.58
5755;BME280;2902;42.130;24.732;2023-07-20T04:20:22;98891.13;;;32.59;42.63
5755;BME280;2902;42.130;24.732;2023-07-20T04:22:48;98909.69;;;33.09;41.05
5755;BME280;2902;42.130;24.732;2023-07-20T04:25:17;98895.81;;;33.56;39.96
5755;BME280;2902;42.130;24.732;2023-07-20T04:27:44;98903.41;;;33.97;39.00
5755;BME280;2902;42.130;24.732;2023-07-20T04:30:11;98911.72;;;34.38;37.68
5755;BME280;2902;42.130;24.732;2023-07-20T04:32:38;98919.63;;;34.85;36.55
5755;BME280;2902;42.130;24.732;2023-07-20T04:35:17;98919.59;;;35.30;35.58
5755;BME280;2902;42.130;24.732;2023-07-20T04:37:44;98920.50;;;35.67;34.05
5755;BME280;2902;42.130;24.732;2023-07-20T04:40:12;98914.88;;;35.89;33.40
5755;BME280;2902;42.130;24.732;2023-07-20T04:42:40;98914.63;;;36.31;33.33
5755;BME280;2902;42.130;24.732;2023-07-20T04:45:08;98930.81;;;36.69;31.99
5755;BME280;2902;42.130;24.732;2023-07-20T04:47:35;98921.69;;;37.12;32.25
5755;BME280;2902;42.130;24.732;2023-07-20T04:50:01;98921.28;;;37.64;31.21
5755;BME280;2902;42.130;24.732;2023-07-20T04:52:28;98930.13;;;37.98;29.04
5755;BME280;2902;42.130;24.732;2023-07-20T04:54:55;98939.72;;;38.04;28.67
5755;BME280;2902;42.130;24.732;2023-07-20T04:57:23;98944.09;;;38.08;28.41
5755;BME280;2902;42.130;24.732;2023-07-20T04:59:51;98952.44;;;38.15;28.69
5755;BME280;2902;42.130;24.732;2023-07-20T05:02:18;98947.66;;;38.12;28.53
5755;BME280;2902;42.130;24.732;2023-07-20T05:04:45;98953.31;;;38.37;27.78
5755;BME280;2902;42.130;24.732;2023-07-20T05:07:11;98946.38;;;37.92;28.58
5755;BME280;2902;42.130;24.732;2023-07-20T05:09:38;98952.16;;;38.52;28.00
5755;BME280;2902;42.130;24.732;2023-07-20T05:12:06;98956.97;;;38.79;27.44
5755;BME280;2902;42.130;24.732;2023-07-20T05:14:33;98951.41;;;38.72;27.53
5755;BME280;2902;42.130;24.732;2023-07-20T05:17:01;98948.66;;;38.93;27.59
5755;BME280;2902;42.130;24.732;2023-07-20T05:19:27;98944.66;;;39.33;26.75
5755;BME280;2902;42.130;24.732;2023-07-20T05:21:54;98943.84;;;39.60;26.80
5755;BME280;2902;42.130;24.732;2023-07-20T05:24:21;98950.25;;;39.47;27.05
5755;BME280;2902;42.130;24.732;2023-07-20T05:26:48;98938.31;;;39.39;27.06
5755;BME280;2902;42.130;24.732;2023-07-20T05:29:14;98928.41;;;39.45;26.24
5755;BME280;2902;42.130;24.732;2023-07-20T05:31:41;98933.91;;;39.52;26.60
5755;BME280;2902;42.130;24.732;2023-07-20T05:34:09;98933.41;;;39.96;26.19
5755;BME280;2902;42.130;24.732;2023-07-20T05:36:36;98932.47;;;40.34;25.64
5755;BME280;2902;42.130;24.732;2023-07-20T05:39:03;98933.41;;;40.71;25.14
5755;BME280;2902;42.130;24.732;2023-07-20T05:41:30;98934.88;;;40.86;25.11
5755;BME280;2902;42.130;24.732;2023-07-20T05:43:56;98932.41;;;40.99;25.19
5755;BME280;2902;42.130;24.732;2023-07-20T05:46:23;98928.31;;;40.56;25.45
5755;BME280;2902;42.130;24.732;2023-07-20T05:48:50;98927.81;;;40.75;25.42
5755;BME280;2902;42.130;24.732;2023-07-20T05:51:18;98922.25;;;41.23;24.68
5755;BME280;2902;42.130;24.732;2023-07-20T05:53:45;98922.00;;;41.51;24.04
5755;BME280;2902;42.130;24.732;2023-07-20T05:56:13;98921.69;;;41.75;23.41
5755;BME280;2902;42.130;24.732;2023-07-20T05:58:40;98922.19;;;42.04;23.06
5755;BME280;2902;42.130;24.732;2023-07-20T06:01:07;98917.38;;;42.04;22.96
5755;BME280;2902;42.130;24.732;2023-07-20T06:03:33;98915.19;;;41.89;23.29
5755;BME280;2902;42.130;24.732;2023-07-20T06:06:00;98903.63;;;41.53;23.75
5755;BME280;2902;42.130;24.732;2023-07-20T06:08:29;98899.53;;;41.24;24.09
5755;BME280;2902;42.130;24.732;2023-07-20T06:10:56;98887.50;;;40.86;24.86
5755;BME280;2902;42.130;24.732;2023-07-20T06:13:23;98900.06;;;41.12;24.28
5755;BME280;2902;42.130;24.732;2023-07-20T06:15:50;98896.19;;;40.95;24.31
5755;BME280;2902;42.130;24.732;2023-07-20T06:18:17;98898.34;;;40.77;24.55
5755;BME280;2902;42.130;24.732;2023-07-20T06:20:48;98892.16;;;40.52;25.01
5755;BME280;2902;42.130;24.732;2023-07-20T06:23:15;98887.78;;;40.51;25.14
5755;BME280;2902;42.130;24.732;2023-07-20T06:25:43;98892.72;;;40.26;25.48
5755;BME280;2902;42.130;24.732;2023-07-20T06:28:10;98884.78;;;40.21;25.57
5755;BME280;2902;42.130;24.732;2023-07-20T06:30:37;98881.59;;;40.16;25.21
5755;BME280;2902;42.130;24.732;2023-07-20T06:33:03;98881.66;;;40.09;25.18
5755;BME280;2902;42.130;24.732;2023-07-20T06:35:30;98886.53;;;39.94;24.56
5755;BME280;2902;42.130;24.732;2023-07-20T06:37:57;98883.50;;;40.36;25.31
5755;BME280;2902;42.130;24.732;2023-07-20T06:40:25;98883.94;;;40.31;24.79
5755;BME280;2902;42.130;24.732;2023-07-20T06:42:53;98879.28;;;40.07;24.97
5755;BME280;2902;42.130;24.732;2023-07-20T06:45:20;98885.59;;;40.18;24.79
5755;BME280;2902;42.130;24.732;2023-07-20T06:47:47;98881.59;;;40.23;24.89
5755;BME280;2902;42.130;24.732;2023-07-20T06:50:14;98876.06;;;40.12;25.20
5755;BME280;2902;42.130;24.732;2023-07-20T06:52:41;98874.63;;;39.90;25.28
5755;BME280;2902;42.130;24.732;2023-07-20T06:55:08;98877.28;;;40.11;25.24
5755;BME280;2902;42.130;24.732;2023-07-20T06:57:35;98870.44;;;40.26;25.75
5755;BME280;2902;42.130;24.732;2023-07-20T07:00:04;98874.88;;;40.20;25.49
5755;BME280;2902;42.130;24.732;2023-07-20T07:02:32;98876.13;;;40.02;25.40
5755;BME280;2902;42.130;24.732;2023-07-20T07:04:59;98874.47;;;40.22;25.06
5755;BME280;2902;42.130;24.732;2023-07-20T07:07:26;98881.72;;;39.95;25.20
5755;BME280;2902;42.130;24.732;2023-07-20T07:09:52;98879.63;;;40.20;25.28
5755;BME280;2902;42.130;24.732;2023-07-20T07:12:19;98878.47;;;40.10;25.10
5755;BME280;2902;42.130;24.732;2023-07-20T07:14:46;98872.50;;;40.08;25.70
5755;BME280;2902;42.130;24.732;2023-07-20T07:17:14;98872.06;;;40.20;24.71
5755;BME280;2902;42.130;24.732;2023-07-20T07:19:40;98864.50;;;40.17;25.17
5755;BME280;2902;42.130;24.732;2023-07-20T07:22:07;98863.28;;;40.25;25.07
5755;BME280;2902;42.130;24.732;2023-07-20T07:24:34;98866.84;;;40.29;24.85
5755;BME280;2902;42.130;24.732;2023-07-20T07:27:01;98866.44;;;40.31;25.17
5755;BME280;2902;42.130;24.732;2023-07-20T07:29:29;98871.28;;;40.23;25.22
5755;BME280;2902;42.130;24.732;2023-07-20T07:31:56;98863.69;;;40.27;25.10
5755;BME280;2902;42.130;24.732;2023-07-20T07:34:25;98862.91;;;40.20;25.29
5755;BME280;2902;42.130;24.732;2023-07-20T07:36:51;98861.75;;;40.21;25.12
5755;BME280;2902;42.130;24.732;2023-07-20T07:39:18;98854.25;;;40.07;25.73
5755;BME280;2902;42.130;24.732;2023-07-20T07:41:45;98855.38;;;40.13;25.32
5755;BME280;2902;42.130;24.732;2023-07-20T07:44:11;98854.00;;;39.81;25.54
5755;BME280;2902;42.130;24.732;2023-07-20T07:46:38;98857.25;;;39.58;25.57
5755;BME280;2902;42.130;24.732;2023-07-20T07:49:04;98847.22;;;39.82;25.58
5755;BME280;2902;42.130;24.732;2023-07-20T07:51:32;98856.38;;;39.82;25.15
5755;BME280;2902;42.130;24.732;2023-07-20T07:53:59;98855.13;;;39.90;25.09
5755;BME280;2902;42.130;24.732;2023-07-20T07:56:26;98850.72;;;39.96;24.72
5755;BME280;2902;42.130;24.732;2023-07-20T07:58:52;98856.25;;;40.03;24.93
5755;BME280;2902;42.130;24.732;2023-07-20T08:01:19;98852.22;;;40.11;24.96
5755;BME280;2902;42.130;24.732;2023-07-20T08:03:46;98851.41;;;40.14;24.82
5755;BME280;2902;42.130;24.732;2023-07-20T08:06:13;98862.50;;;40.25;24.54
5755;BME280;2902;42.130;24.732;2023-07-20T08:08:41;98847.34;;;40.33;24.78
5755;BME280;2902;42.130;24.732;2023-07-20T08:11:08;98857.00;;;40.14;24.46
5755;BME280;2902;42.130;24.732;2023-07-20T08:13:36;98858.56;;;40.19;24.62
5755;BME280;2902;42.130;24.732;2023-07-20T08:16:03;98851.75;;;40.27;25.23
5755;BME280;2902;42.130;24.732;2023-07-20T08:18:30;98853.72;;;40.26;24.58
5755;BME280;2902;42.130;24.732;2023-07-20T08:20:57;98858.41;;;40.40;24.67
5755;BME280;2902;42.130;24.732;2023-07-20T08:23:24;98861.47;;;40.56;24.40
5755;BME280;2902;42.130;24.732;2023-07-20T08:25:52;98851.13;;;40.60;24.75
5755;BME280;2902;42.130;24.732;2023-07-20T08:28:19;98863.75;;;40.71;24.15
5755;BME280;2902;42.130;24.732;2023-07-20T08:30:47;98864.00;;;40.91;23.66
5755;BME280;2902;42.130;24.732;2023-07-20T08:33:15;98864.75;;;40.95;24.17
5755;BME280;2902;42.130;24.732;2023-07-20T08:35:41;98863.94;;;40.94;23.83
5755;BME280;2902;42.130;24.732;2023-07-20T08:38:09;98874.66;;;40.99;23.95
5755;BME280;2902;42.130;24.732;2023-07-20T08:40:40;98864.41;;;40.89;23.77
5755;BME280;2902;42.130;24.732;2023-07-20T08:43:08;98865.97;;;40.90;24.45
5755;BME280;2902;42.130;24.732;2023-07-20T08:45:36;98858.06;;;40.85;24.13
5755;BME280;2902;42.130;24.732;2023-07-20T08:48:05;98858.53;;;40.80;23.97
5755;BME280;2902;42.130;24.732;2023-07-20T08:50:33;98854.78;;;40.97;24.22
5755;BME280;2902;42.130;24.732;2023-07-20T08:53:01;98847.84;;;41.13;24.14
5755;BME280;2902;42.130;24.732;2023-07-20T08:55:29;98849.06;;;41.15;23.44
5755;BME280;2902;42.130;24.732;2023-07-20T08:57:56;98847.09;;;41.08;23.96
5755;BME280;2902;42.130;24.732;2023-07-20T09:00:26;98843.69;;;40.90;24.23
5755;BME280;2902;42.130;24.732;2023-07-20T09:02:55;98845.59;;;40.49;24.85
5755;BME280;2902;42.130;24.732;2023-07-20T09:05:23;98835.63;;;40.55;24.68
5755;BME280;2902;42.130;24.732;2023-07-20T09:07:51;98825.38;;;39.70;25.26
5755;BME280;2902;42.130;24.732;2023-07-20T09:10:20;98808.06;;;39.34;25.93
5755;BME280;2902;42.130;24.732;2023-07-20T09:12:47;98805.47;;;39.85;25.40
5755;BME280;2902;42.130;24.732;2023-07-20T09:15:14;98813.78;;;39.92;25.21
5755;BME280;2902;42.130;24.732;2023-07-20T09:17:47;98813.34;;;39.97;25.31
5755;BME280;2902;42.130;24.732;2023-07-20T09:20:15;98812.81;;;40.16;24.86
5755;BME280;2902;42.130;24.732;2023-07-20T09:22:42;98816.47;;;40.06;25.09
5755;BME280;2902;42.130;24.732;2023-07-20T09:25:11;98802.81;;;40.29;25.12
5755;BME280;2902;42.130;24.732;2023-07-20T09:27:39;98804.41;;;40.27;25.29
5755;BME280;2902;42.130;24.732;2023-07-20T09:30:07;98788.56;;;40.13;24.37
5755;BME280;2902;42.130;24.732;2023-07-20T09:32:38;98787.03;;;40.05;25.40
5755;BME280;2902;42.130;24.732;2023-07-20T09:35:12;98786.34;;;39.94;25.37
5755;BME280;2902;42.130;24.732;2023-07-20T09:37:39;98784.53;;;40.28;24.89
5755;BME280;2902;42.130;24.732;2023-07-20T09:40:07;98780.78;;;39.91;26.17
5755;BME280;2902;42.130;24.732;2023-07-20T09:42:35;98780.00;;;39.90;25.19
5755;BME280;2902;42.130;24.732;2023-07-20T09:45:04;98775.50;;;39.38;25.97
5755;BME280;2902;42.130;24.732;2023-07-20T09:47:35;98782.88;;;39.76;25.18
5755;BME280;2902;42.130;24.732;2023-07-20T09:50:03;98780.13;;;39.59;25.12
5755;BME280;2902;42.130;24.732;2023-07-20T09:52:31;98780.63;;;39.43;25.35
5755;BME280;2902;42.130;24.732;2023-07-20T09:54:58;98772.28;;;39.43;25.38
5755;BME280;2902;42.130;24.732;2023-07-20T09:57:26;98769.72;;;39.80;25.21
5755;BME280;2902;42.130;24.732;2023-07-20T09:59:52;98763.53;;;40.13;25.29
5755;BME280;2902;42.130;24.732;2023-07-20T10:02:20;98765.53;;;40.13;24.68
5755;BME280;2902;42.130;24.732;2023-07-20T10:04:53;98751.97;;;40.18;24.80
5755;BME280;2902;42.130;24.732;2023-07-20T10:07:22;98747.91;;;40.30;24.50
5755;BME280;2902;42.130;24.732;2023-07-20T10:09:51;98748.59;;;40.44;24.65
5755;BME280;2902;42.130;24.732;2023-07-20T10:12:22;98748.88;;;40.53;25.04
5755;BME280;2902;42.130;24.732;2023-07-20T10:14:54;98744.81;;;40.68;24.59
5755;BME280;2902;42.130;24.732;2023-07-20T10:17:25;98733.94;;;40.77;24.82
5755;BME280;2902;42.130;24.732;2023-07-20T10:19:55;98730.13;;;40.64;24.74
5755;BME280;2902;42.130;24.732;2023-07-20T10:22:26;98714.25;;;40.54;25.15
5755;BME280;2902;42.130;24.732;2023-07-20T10:24:54;98715.00;;;40.58;25.05
5755;BME280;2902;42.130;24.732;2023-07-20T10:27:24;98717.22;;;40.77;24.99
5755;BME280;2902;42.130;24.732;2023-07-20T10:29:51;98713.09;;;40.92;24.25
5755;BME280;2902;42.130;24.732;2023-07-20T10:32:19;98712.94;;;41.07;24.62
5755;BME280;2902;42.130;24.732;2023-07-20T10:34:50;98708.03;;;41.18;24.20
5755;BME280;2902;42.130;24.732;2023-07-20T10:37:54;98700.66;;;41.31;24.35
5755;BME280;2902;42.130;24.732;2023-07-20T10:40:28;98696.19;;;40.73;25.01
5755;BME280;2902;42.130;24.732;2023-07-20T10:43:00;98697.94;;;40.93;23.98
5755;BME280;2902;42.130;24.732;2023-07-20T10:45:41;98694.53;;;41.13;23.90
5755;BME280;2902;42.130;24.732;2023-07-20T10:48:14;98700.25;;;40.98;23.58
5755;BME280;2902;42.130;24.732;2023-07-20T10:50:42;98694.25;;;41.03;23.72
5755;BME280;2902;42.130;24.732;2023-07-20T10:53:14;98696.44;;;40.85;24.31
5755;BME280;2902;42.130;24.732;2023-07-20T10:55:42;98688.97;;;40.75;24.84
5755;BME280;2902;42.130;24.732;2023-07-20T10:58:12;98679.78;;;40.78;25.01
5755;BME280;2902;42.130;24.732;2023-07-20T11:00:55;98662.59;;;40.50;24.84
5755;BME280;2902;42.130;24.732;2023-07-20T11:03:31;98670.47;;;39.63;25.33
5755;BME280;2902;42.130;24.732;2023-07-20T11:05:58;98672.38;;;39.77;24.90
5755;BME280;2902;42.130;24.732;2023-07-20T11:08:38;98668.66;;;39.36;24.89
5755;BME280;2902;42.130;24.732;2023-07-20T11:11:24;98674.53;;;39.52;24.80
5755;BME280;2902;42.130;24.732;2023-07-20T11:13:57;98670.47;;;39.63;23.95
5755;BME280;2902;42.130;24.732;2023-07-20T11:16:35;98667.34;;;39.54;24.14
5755;BME280;2902;42.130;24.732;2023-07-20T11:19:02;98666.03;;;39.73;23.93
5755;BME280;2902;42.130;24.732;2023-07-20T11:21:30;98670.22;;;39.98;23.61
5755;BME280;2902;42.130;24.732;2023-07-20T11:24:03;98660.00;;;39.81;23.58
5755;BME280;2902;42.130;24.732;2023-07-20T11:26:39;98663.47;;;39.99;23.62
5755;BME280;2902;42.130;24.732;2023-07-20T11:29:06;98658.88;;;40.23;23.57
5755;BME280;2902;42.130;24.732;2023-07-20T11:31:35;98659.47;;;40.44;24.03
5755;BME280;2902;42.130;24.732;2023-07-20T11:34:01;98650.50;;;40.63;23.53
5755;BME280;2902;42.130;24.732;2023-07-20T11:36:28;98643.66;;;40.34;23.57
5755;BME280;2902;42.130;24.732;2023-07-20T11:38:55;98632.84;;;39.99;23.75
5755;BME280;2902;42.130;24.732;2023-07-20T11:41:22;98638.03;;;39.97;24.15
5755;BME280;2902;42.130;24.732;2023-07-20T11:43:50;98641.81;;;40.17;24.43
5755;BME280;2902;42.130;24.732;2023-07-20T11:46:16;98626.94;;;40.38;24.16
5755;BME280;2902;42.130;24.732;2023-07-20T11:48:43;98624.78;;;40.52;23.88
5755;BME280;2902;42.130;24.732;2023-07-20T11:51:13;98634.94;;;40.32;24.43
5755;BME280;2902;42.130;24.732;2023-07-20T11:53:40;98628.00;;;40.47;23.81
5755;BME280;2902;42.130;24.732;2023-07-20T11:56:07;98627.91;;;40.54;23.70
5755;BME280;2902;42.130;24.732;2023-07-20T11:58:34;98635.69;;;40.36;23.79
5755;BME280;2902;42.130;24.732;2023-07-20T12:01:02;98630.25;;;40.22;23.64
5755;BME280;2902;42.130;24.732;2023-07-20T12:03:29;98624.63;;;40.29;23.62
5755;BME280;2902;42.130;24.732;2023-07-20T12:06:06;98621.78;;;39.92;24.15
5755;BME280;2902;42.130;24.732;2023-07-20T12:08:33;98622.38;;;40.14;24.07
5755;BME280;2902;42.130;24.732;2023-07-20T12:10:59;98609.47;;;40.34;24.19
5755;BME280;2902;42.130;24.732;2023-07-20T12:13:35;98607.28;;;40.11;24.32
5755;BME280;2902;42.130;24.732;2023-07-20T12:16:09;98605.63;;;40.17;24.23
5755;BME280;2902;42.130;24.732;2023-07-20T12:18:36;98595.25;;;40.25;24.23
5755;BME280;2902;42.130;24.732;2023-07-20T12:21:03;98594.66;;;40.03;24.57
5755;BME280;2902;42.130;24.732;2023-07-20T12:23:35;98577.78;;;40.17;24.19
5755;BME280;2902;42.130;24.732;2023-07-20T12:26:02;98572.47;;;40.33;24.37
5755;BME280;2902;42.130;24.732;2023-07-20T12:28:29;98568.81;;;40.40;23.64
5755;BME280;2902;42.130;24.732;2023-07-20T12:30:56;98553.81;;;40.30;24.53
5755;BME280;2902;42.130;24.732;2023-07-20T12:33:24;98546.28;;;39.90;24.10
5755;BME280;2902;42.130;24.732;2023-07-20T12:35:50;98543.72;;;40.06;24.15
5755;BME280;2902;42.130;24.732;2023-07-20T12:38:21;98552.31;;;40.22;23.96
5755;BME280;2902;42.130;24.732;2023-07-20T12:40:47;98540.31;;;40.29;23.75
5755;BME280;2902;42.130;24.732;2023-07-20T12:43:14;98537.22;;;40.20;23.85
5755;BME280;2902;42.130;24.732;2023-07-20T12:45:41;98543.41;;;40.34;23.99
5755;BME280;2902;42.130;24.732;2023-07-20T12:48:08;98539.44;;;40.35;24.38
5755;BME280;2902;42.130;24.732;2023-07-20T12:50:36;98530.38;;;40.28;24.46
5755;BME280;2902;42.130;24.732;2023-07-20T12:53:03;98541.22;;;40.19;24.69
5755;BME280;2902;42.130;24.732;2023-07-20T12:55:30;98533.25;;;39.84;24.50
5755;BME280;2902;42.130;24.732;2023-07-20T12:57:56;98532.63;;;39.62;25.22
5755;BME280;2902;42.130;24.732;2023-07-20T13:00:23;98542.50;;;39.67;24.88
5755;BME280;2902;42.130;24.732;2023-07-20T13:02:50;98548.13;;;39.60;25.37
5755;BME280;2902;42.130;24.732;2023-07-20T13:05:17;98550.38;;;39.75;25.24
5755;BME280;2902;42.130;24.732;2023-07-20T13:07:45;98555.00;;;39.92;24.81
5755;BME280;2902;42.130;24.732;2023-07-20T13:10:12;98550.56;;;39.98;25.00
5755;BME280;2902;42.130;24.732;2023-07-20T13:12:39;98558.75;;;40.12;24.57
5755;BME280;2902;42.130;24.732;2023-07-20T13:15:07;98565.16;;;40.09;24.68
5755;BME280;2902;42.130;24.732;2023-07-20T13:17:35;98551.03;;;39.90;24.74
5755;BME280;2902;42.130;24.732;2023-07-20T13:20:04;98559.69;;;40.02;24.65